Time,TemperatureF,DewpointF,PressureIn,WindDirection,WindDirectionDegrees,WindSpeedMPH,WindSpeedGustMPH,Humidity,HourlyPrecipIn,Conditions,Clouds,dailyrainin,SoftwareType,DateUTC
2013-02-17 00:01:00,27.1,21.0,29.88,NE,40,2.0,2.0,78,0.00,,,0.00,weatherlink.com 1.10,2013-02-17 07:01:00,
2013-02-17 00:16:00,28.9,21.0,29.87,NNW,337,6.0,8.0,71,0.00,,,0.00,weatherlink.com 1.10,2013-02-17 07:16:00,
2013-02-17 00:30:00,29.3,21.0,29.86,North,359,5.0,7.0,70,0.00,,,0.00,weatherlink.com 1.10,2013-02-17 07:30:00,
2013-02-17 00:45:00,24.7,19.0,29.85,East,84,2.0,4.0,79,0.00,,,0.00,weatherlink.com 1.10,2013-02-17 07:45:00,
2013-02-17 00:59:00,26.5,21.0,29.86,NE,53,2.0,3.0,78,0.00,,,0.00,weatherlink.com 1.10,2013-02-17 07:59:00,
2013-02-17 01:13:00,28.9,21.0,29.85,NNE,31,2.0,4.0,72,0.00,,,0.00,weatherlink.com 1.10,2013-02-17 08:13:00,
2013-02-17 01:28:00,29.6,19.0,29.84,ESE,108,2.0,6.0,65,0.00,,,0.00,weatherlink.com 1.10,2013-02-17 08:28:00,
2013-02-17 01:42:00,29.9,20.0,29.83,NNW,339,4.0,6.0,65,0.00,,,0.00,weatherlink.com 1.10,2013-02-17 08:42:00,
2013-02-17 01:56:00,26.3,18.0,29.83,North,357,6.0,8.0,70,0.00,,,0.00,weatherlink.com 1.10,2013-02-17 08:56:00,
2013-02-17 02:11:00,25.9,18.0,29.81,NW,313,1.0,4.0,73,0.00,,,0.00,weatherlink.com 1.10,2013-02-17 09:11:00,
2013-02-17 02:25:00,27.0,18.0,29.81,NE,56,6.0,7.0,69,0.00,,,0.00,weatherlink.com 1.10,2013-02-17 09:25:00,
2013-02-17 02:40:00,31.1,20.0,29.79,NE,54,3.0,9.0,64,0.00,,,0.00,weatherlink.com 1.10,2013-02-17 09:40:00,
2013-02-17 02:54:00,31.0,19.0,29.79,NNW,335,9.0,9.0,60,0.00,,,0.00,weatherlink.com 1.10,2013-02-17 09:54:00,
2013-02-17 03:09:00,27.7,18.0,29.78,East,82,0.0,2.0,66,0.00,,,0.00,weatherlink.com 1.10,2013-02-17 10:09:00,
2013-02-17 03:23:00,25.3,18.0,29.77,NW,315,4.0,6.0,73,0.00,,,0.00,weatherlink.com 1.10,2013-02-17 10:23:00,
2013-02-17 03:38:00,25.5,18.0,29.76,NNE,16,0.0,7.0,74,0.00,,,0.00,weatherlink.com 1.10,2013-02-17 10:38:00,
2013-02-17 03:52:00,28.6,18.0,29.75,NE,43,2.0,6.0,64,0.00,,,0.00,weatherlink.com 1.10,2013-02-17 10:52:00,
2013-02-17 04:07:00,31.1,18.0,29.73,East,97,4.0,7.0,59,0.00,,,0.00,weatherlink.com 1.10,2013-02-17 11:07:00,
2013-02-17 04:21:00,28.1,19.0,29.73,NNE,33,3.0,11.0,67,0.00,,,0.00,weatherlink.com 1.10,2013-02-17 11:21:00,
2013-02-17 04:36:00,37.2,18.0,29.73,North,357,14.0,14.0,46,0.00,,,0.00,weatherlink.com 1.10,2013-02-17 11:36:00,
2013-02-17 04:50:00,35.9,19.0,29.73,NNE,15,7.0,12.0,50,0.00,,,0.00,weatherlink.com 1.10,2013-02-17 11:50:00,
2013-02-17 05:05:00,35.2,19.0,29.73,NE,56,6.0,10.0,52,0.00,,,0.00,weatherlink.com 1.10,2013-02-17 12:05:00,
2013-02-17 05:19:00,34.4,19.0,29.73,NNE,30,6.0,7.0,52,0.00,,,0.00,weatherlink.com 1.10,2013-02-17 12:19:00,
2013-02-17 05:33:00,37.9,18.0,29.73,East,83,8.0,14.0,45,0.00,,,0.00,weatherlink.com 1.10,2013-02-17 12:33:00,
2013-02-17 05:47:00,37.7,17.0,29.72,ENE,64,4.0,9.0,43,0.00,,,0.00,weatherlink.com 1.10,2013-02-17 12:47:00,
2013-02-17 06:02:00,36.1,16.0,29.72,SE,139,3.0,4.0,44,0.00,,,0.00,weatherlink.com 1.10,2013-02-17 13:02:00,
2013-02-17 06:16:00,34.5,17.0,29.71,NW,316,2.0,4.0,48,0.00,,,0.00,weatherlink.com 1.10,2013-02-17 13:16:00,
2013-02-17 06:31:00,31.9,17.0,29.70,NW,312,2.0,8.0,53,0.00,,,0.00,weatherlink.com 1.10,2013-02-17 13:31:00,
2013-02-17 06:45:00,37.0,16.0,29.70,North,9,3.0,7.0,42,0.00,,,0.00,weatherlink.com 1.10,2013-02-17 13:45:00,
2013-02-17 07:00:00,33.2,16.0,29.70,North,357,1.0,4.0,48,0.00,,,0.00,weatherlink.com 1.10,2013-02-17 14:00:00,
2013-02-17 07:14:00,35.3,16.0,29.70,NE,36,5.0,6.0,44,0.00,,,0.00,weatherlink.com 1.10,2013-02-17 14:14:00,
2013-02-17 07:29:00,32.9,17.0,29.70,NNE,23,11.0,11.0,51,0.00,,,0.00,weatherlink.com 1.10,2013-02-17 14:29:00,
2013-02-17 07:43:00,34.4,18.0,29.70,NNE,13,7.0,8.0,50,0.00,,,0.00,weatherlink.com 1.10,2013-02-17 14:43:00,
2013-02-17 07:57:00,35.0,19.0,29.72,ENE,72,6.0,9.0,52,0.00,,,0.00,weatherlink.com 1.10,2013-02-17 14:57:00,
2013-02-17 08:12:00,34.7,23.0,29.75,East,83,18.0,25.0,62,0.00,,,0.00,weatherlink.com 1.10,2013-02-17 15:12:00,
2013-02-17 08:26:00,33.7,24.0,29.75,East,99,15.0,26.0,68,0.00,,,0.00,weatherlink.com 1.10,2013-02-17 15:26:00,
2013-02-17 08:40:00,33.4,25.0,29.75,East,96,11.0,18.0,71,0.00,,,0.00,weatherlink.com 1.10,2013-02-17 15:40:00,
2013-02-17 08:55:00,33.1,25.0,29.75,East,86,10.0,13.0,73,0.00,,,0.00,weatherlink.com 1.10,2013-02-17 15:55:00,
2013-02-17 09:10:00,32.6,26.0,29.75,East,83,7.0,11.0,76,0.00,,,0.00,weatherlink.com 1.10,2013-02-17 16:10:00,
2013-02-17 09:24:00,32.7,27.0,29.75,East,92,6.0,15.0,78,0.00,,,0.00,weatherlink.com 1.10,2013-02-17 16:24:00,
2013-02-17 09:38:00,32.5,28.0,29.74,East,81,17.0,21.0,83,0.00,,,0.00,weatherlink.com 1.10,2013-02-17 16:38:00,
2013-02-17 09:53:00,33.4,28.0,29.74,ENE,70,18.0,20.0,82,0.00,,,0.00,weatherlink.com 1.10,2013-02-17 16:53:00,
2013-02-17 10:07:00,34.1,29.0,29.74,East,89,20.0,25.0,82,0.00,,,0.00,weatherlink.com 1.10,2013-02-17 17:07:00,
2013-02-17 10:22:00,34.3,29.0,29.73,East,89,20.0,25.0,82,0.00,,,0.00,weatherlink.com 1.10,2013-02-17 17:22:00,
2013-02-17 10:36:00,33.5,29.0,29.73,East,84,21.0,26.0,84,0.00,,,0.00,weatherlink.com 1.10,2013-02-17 17:36:00,
2013-02-17 10:50:00,33.4,29.0,29.73,East,85,20.0,32.0,85,0.00,,,0.00,weatherlink.com 1.10,2013-02-17 17:50:00,
2013-02-17 11:05:00,33.6,30.0,29.73,East,90,21.0,28.0,86,0.00,,,0.00,weatherlink.com 1.10,2013-02-17 18:05:00,
2013-02-17 11:19:00,33.5,30.0,29.73,East,94,22.0,27.0,86,0.00,,,0.00,weatherlink.com 1.10,2013-02-17 18:19:00,
2013-02-17 11:34:00,32.9,30.0,29.74,East,99,19.0,27.0,88,0.00,,,0.00,weatherlink.com 1.10,2013-02-17 18:34:00,
2013-02-17 11:48:00,32.3,29.0,29.74,East,89,26.0,31.0,87,0.00,,,0.00,weatherlink.com 1.10,2013-02-17 18:48:00,
2013-02-17 12:03:00,31.4,29.0,29.75,East,94,26.0,31.0,89,0.00,,,0.00,weatherlink.com 1.10,2013-02-17 19:03:00,
2013-02-17 12:17:00,31.2,28.0,29.75,East,84,19.0,30.0,89,0.00,,,0.00,weatherlink.com 1.10,2013-02-17 19:17:00,
2013-02-17 12:31:00,31.4,27.0,29.75,East,91,21.0,29.0,85,0.00,,,0.00,weatherlink.com 1.10,2013-02-17 19:31:00,
2013-02-17 12:46:00,32.0,27.0,29.75,East,101,17.0,23.0,83,0.00,,,0.00,weatherlink.com 1.10,2013-02-17 19:46:00,
2013-02-17 13:00:00,32.6,27.0,29.75,ENE,72,14.0,21.0,80,0.00,,,0.00,weatherlink.com 1.10,2013-02-17 20:00:00,
2013-02-17 13:15:00,34.0,26.0,29.74,East,94,20.0,21.0,73,0.00,,,0.00,weatherlink.com 1.10,2013-02-17 20:15:00,
2013-02-17 13:29:00,34.2,26.0,29.74,East,90,20.0,25.0,72,0.00,,,0.00,weatherlink.com 1.10,2013-02-17 20:29:00,
2013-02-17 13:43:00,34.6,24.0,29.74,East,96,23.0,30.0,66,0.00,,,0.00,weatherlink.com 1.10,2013-02-17 20:43:00,
2013-02-17 13:58:00,34.4,24.0,29.74,East,88,23.0,30.0,66,0.00,,,0.00,weatherlink.com 1.10,2013-02-17 20:58:00,
2013-02-17 14:13:00,35.2,23.0,29.75,East,96,25.0,30.0,61,0.00,,,0.00,weatherlink.com 1.10,2013-02-17 21:13:00,
2013-02-17 14:27:00,34.3,22.0,29.76,ENE,73,28.0,31.0,60,0.00,,,0.00,weatherlink.com 1.10,2013-02-17 21:27:00,
2013-02-17 14:41:00,34.5,22.0,29.76,ENE,71,25.0,35.0,60,0.00,,,0.00,weatherlink.com 1.10,2013-02-17 21:41:00,
2013-02-17 14:56:00,33.9,22.0,29.77,ENE,74,14.0,30.0,61,0.00,,,0.00,weatherlink.com 1.10,2013-02-17 21:56:00,
2013-02-17 15:10:00,35.0,23.0,29.77,ENE,75,18.0,23.0,60,0.00,,,0.00,weatherlink.com 1.10,2013-02-17 22:10:00,
2013-02-17 15:25:00,35.3,22.0,29.78,East,96,19.0,24.0,57,0.00,,,0.00,weatherlink.com 1.10,2013-02-17 22:25:00,
2013-02-17 15:39:00,34.1,22.0,29.78,East,91,20.0,28.0,60,0.00,,,0.00,weatherlink.com 1.10,2013-02-17 22:39:00,
2013-02-17 15:54:00,32.4,24.0,29.80,East,94,34.0,35.0,72,0.00,,,0.00,weatherlink.com 1.10,2013-02-17 22:54:00,
2013-02-17 16:08:00,29.7,27.0,29.82,East,92,33.0,41.0,88,0.00,,,0.00,weatherlink.com 1.10,2013-02-17 23:08:00,
2013-02-17 16:23:00,30.3,26.0,29.83,ESE,110,29.0,34.0,85,0.00,,,0.00,weatherlink.com 1.10,2013-02-17 23:23:00,
2013-02-17 16:37:00,30.7,26.0,29.84,East,98,27.0,32.0,83,0.00,,,0.00,weatherlink.com 1.10,2013-02-17 23:37:00,
2013-02-17 16:52:00,29.9,26.0,29.85,East,95,20.0,28.0,84,0.00,,,0.00,weatherlink.com 1.10,2013-02-17 23:52:00,
2013-02-17 17:06:00,29.2,26.0,29.86,East,87,19.0,28.0,87,0.00,,,0.00,weatherlink.com 1.10,2013-02-18 00:06:00,
2013-02-17 17:21:00,29.1,25.0,29.87,East,94,19.0,24.0,86,0.00,,,0.00,weatherlink.com 1.10,2013-02-18 00:21:00,
2013-02-17 17:35:00,28.9,26.0,29.88,ESE,108,17.0,27.0,87,0.00,,,0.00,weatherlink.com 1.10,2013-02-18 00:35:00,
2013-02-17 17:49:00,28.5,25.0,29.89,East,82,20.0,25.0,87,0.00,,,0.00,weatherlink.com 1.10,2013-02-18 00:49:00,
2013-02-17 18:04:00,28.1,24.0,29.90,ESE,108,18.0,23.0,86,0.00,,,0.00,weatherlink.com 1.10,2013-02-18 01:04:00,
2013-02-17 18:19:00,27.7,23.0,29.90,East,96,14.0,19.0,84,0.00,,,0.00,weatherlink.com 1.10,2013-02-18 01:19:00,
2013-02-17 18:33:00,27.8,23.0,29.91,ESE,104,11.0,20.0,81,0.00,,,0.00,weatherlink.com 1.10,2013-02-18 01:33:00,
2013-02-17 18:47:00,27.3,22.0,29.93,ESE,108,11.0,14.0,81,0.00,,,0.00,weatherlink.com 1.10,2013-02-18 01:47:00,
2013-02-17 19:02:00,26.9,23.0,29.95,East,99,20.0,24.0,86,0.00,,,0.00,weatherlink.com 1.10,2013-02-18 02:02:00,
2013-02-17 19:16:00,27.3,25.0,29.95,East,98,22.0,26.0,91,0.00,,,0.00,weatherlink.com 1.10,2013-02-18 02:16:00,
2013-02-17 19:31:00,27.6,25.0,29.95,East,84,28.0,31.0,90,0.00,,,0.00,weatherlink.com 1.10,2013-02-18 02:31:00,
2013-02-17 19:45:00,27.4,25.0,29.96,ESE,115,21.0,29.0,92,0.00,,,0.00,weatherlink.com 1.10,2013-02-18 02:45:00,
2013-02-17 20:00:00,27.4,25.0,29.96,East,93,19.0,23.0,90,0.00,,,0.00,weatherlink.com 1.10,2013-02-18 03:00:00,
2013-02-17 20:14:00,27.7,25.0,29.97,ESE,106,15.0,22.0,89,0.00,,,0.00,weatherlink.com 1.10,2013-02-18 03:14:00,
2013-02-17 20:29:00,27.9,25.0,29.97,East,96,15.0,22.0,88,0.00,,,0.00,weatherlink.com 1.10,2013-02-18 03:29:00,
2013-02-17 20:43:00,28.3,24.0,29.97,ESE,105,21.0,23.0,85,0.00,,,0.00,weatherlink.com 1.10,2013-02-18 03:43:00,
2013-02-17 20:57:00,28.1,25.0,29.98,East,96,25.0,28.0,89,0.00,,,0.00,weatherlink.com 1.10,2013-02-18 03:57:00,
2013-02-17 21:12:00,28.1,25.0,29.98,East,96,18.0,28.0,87,0.00,,,0.00,weatherlink.com 1.10,2013-02-18 04:12:00,
2013-02-17 21:26:00,28.0,24.0,29.98,East,99,20.0,27.0,86,0.00,,,0.00,weatherlink.com 1.10,2013-02-18 04:26:00,
2013-02-17 21:41:00,28.0,24.0,29.99,ESE,103,24.0,29.0,85,0.00,,,0.00,weatherlink.com 1.10,2013-02-18 04:41:00,
2013-02-17 21:55:00,27.2,24.0,29.99,East,89,20.0,29.0,86,0.00,,,0.00,weatherlink.com 1.10,2013-02-18 04:55:00,
2013-02-17 22:10:00,26.7,23.0,30.00,East,101,14.0,21.0,85,0.00,,,0.00,weatherlink.com 1.10,2013-02-18 05:10:00,
2013-02-17 22:24:00,27.0,23.0,30.00,East,91,19.0,24.0,83,0.00,,,0.00,weatherlink.com 1.10,2013-02-18 05:24:00,
2013-02-17 22:38:00,27.5,23.0,30.01,East,94,18.0,25.0,82,0.00,,,0.00,weatherlink.com 1.10,2013-02-18 05:38:00,
2013-02-17 22:53:00,27.3,23.0,30.01,ESE,112,18.0,21.0,82,0.00,,,0.00,weatherlink.com 1.10,2013-02-18 05:53:00,
2013-02-17 23:07:00,27.0,22.0,30.01,ESE,117,10.0,22.0,82,0.00,,,0.00,weatherlink.com 1.10,2013-02-18 06:07:00,
2013-02-17 23:21:00,26.5,22.0,30.02,ESE,105,12.0,15.0,83,0.00,,,0.00,weatherlink.com 1.10,2013-02-18 06:21:00,
2013-02-17 23:36:00,26.3,22.0,30.02,SE,124,14.0,18.0,83,0.00,,,0.00,weatherlink.com 1.10,2013-02-18 06:36:00,
2013-02-17 23:50:00,26.1,22.0,30.03,SE,125,11.0,14.0,84,0.00,,,0.00,weatherlink.com 1.10,2013-02-18 06:50:00,